Time;durP1;ratioP1;P1;durP2;ratioP2;P2;SDS_P1;SDS_P2;PMS_P1;PMS_P2;Temp;Humidity;BMP_temperature;BMP_pressure;BME280_temperature;BME280_humidity;BME280_pressure;Samples;Min_cycle;Max_cycle;Signal;HPM_P1;HPM_P2
2022/02/26 00:02:25;;;;;;;3.90;0.50;;;4.50;1.00;;;;;;5056273;28;20425;-69
2022/02/26 00:04:53;;;;;;;1.60;0.50;;;4.60;1.00;;;;;;5056418;28;20472;-68
2022/02/26 00:07:20;;;;;;;1.20;0.50;;;4.40;1.00;;;;;;5056789;28;20937;-70
2022/02/26 00:09:48;;;;;;;0.80;0.40;;;4.40;1.00;;;;;;5056616;28;20487;-68
2022/02/26 00:12:15;;;;;;;1.70;0.50;;;4.40;1.00;;;;;;5048620;28;20498;-67
2022/02/26 00:14:42;;;;;;;1.38;0.50;;;4.50;1.00;;;;;;5055009;28;20487;-69
2022/02/26 00:17:09;;;;;;;1.48;0.50;;;4.60;1.00;;;;;;5057505;28;20841;-69
2022/02/26 00:19:36;;;;;;;0.60;0.40;;;4.70;1.00;;;;;;5057942;28;20429;-68
2022/02/26 00:22:03;;;;;;;1.40;0.40;;;4.60;1.00;;;;;;5058634;28;20437;-69
2022/02/26 00:24:30;;;;;;;1.40;0.50;;;4.70;1.00;;;;;;5057762;28;20427;-69
2022/02/26 00:26:59;;;;;;;1.70;0.50;;;4.60;1.00;;;;;;5057592;28;20429;-69
2022/02/26 00:29:26;;;;;;;1.35;0.50;;;4.60;1.00;;;;;;5054778;28;20421;-69
2022/02/26 00:31:53;;;;;;;3.00;0.70;;;4.70;1.00;;;;;;5038309;28;20427;-69
2022/02/26 00:34:21;;;;;;;2.00;0.50;;;4.70;1.00;;;;;;5039014;28;20427;-69
2022/02/26 00:36:47;;;;;;;1.63;0.60;;;4.80;1.00;;;;;;5056945;28;20506;-69
2022/02/26 00:39:14;;;;;;;1.60;0.50;;;4.80;1.00;;;;;;5056071;28;20783;-69
2022/02/26 00:41:41;;;;;;;1.70;0.60;;;4.70;1.00;;;;;;5037243;28;20435;-69
2022/02/26 00:44:10;;;;;;;2.10;0.50;;;4.70;1.00;;;;;;5037604;28;20489;-70
2022/02/26 00:46:37;;;;;;;2.20;0.60;;;4.80;1.00;;;;;;5037429;28;20734;-68
2022/02/26 00:51:49;;;;;;;1.30;0.60;;;4.80;1.00;;;;;;5037319;28;20763;-69
2022/02/26 00:54:16;;;;;;;2.40;0.50;;;4.80;1.00;;;;;;5039787;28;20438;-70
2022/02/26 00:56:44;;;;;;;1.40;0.50;;;4.80;1.00;;;;;;5055795;28;20453;-69
2022/02/26 00:59:12;;;;;;;1.00;0.57;;;4.80;1.00;;;;;;5037618;28;20469;-69
2022/02/26 01:01:40;;;;;;;1.38;0.70;;;4.70;1.00;;;;;;5037611;28;20459;-69
2022/02/26 01:04:08;;;;;;;1.00;0.50;;;4.80;1.00;;;;;;5037714;28;20427;-69
2022/02/26 01:06:35;;;;;;;1.60;0.50;;;4.80;1.00;;;;;;5037788;28;20427;-68
2022/02/26 01:09:02;;;;;;;1.20;0.50;;;4.70;1.00;;;;;;5037755;28;20423;-69
2022/02/26 01:11:29;;;;;;;1.70;0.50;;;4.70;1.00;;;;;;5037574;28;20556;-69
2022/02/26 01:13:57;;;;;;;2.30;0.50;;;4.60;1.00;;;;;;5056849;28;20429;-69
2022/02/26 01:16:26;;;;;;;1.20;0.50;;;4.80;1.00;;;;;;5057002;28;20420;-68
2022/02/26 01:18:53;;;;;;;3.40;0.50;;;4.80;1.00;;;;;;5037264;28;20423;-69
2022/02/26 01:21:21;;;;;;;1.50;0.60;;;4.80;1.00;;;;;;5036507;28;20731;-68
2022/02/26 01:23:48;;;;;;;3.60;0.50;;;4.70;1.00;;;;;;5037167;28;20486;-69
2022/02/26 01:26:16;;;;;;;1.60;0.50;;;4.70;1.00;;;;;;5041719;28;20433;-68
2022/02/26 01:28:42;;;;;;;1.02;0.50;;;4.90;1.00;;;;;;5056691;28;20436;-69
2022/02/26 01:31:09;;;;;;;2.70;0.50;;;5.00;1.00;;;;;;5051460;28;20423;-68
2022/02/26 01:33:38;;;;;;;1.40;0.50;;;5.00;1.00;;;;;;5037424;28;20492;-69
2022/02/26 01:36:05;;;;;;;2.05;0.60;;;5.00;1.00;;;;;;5035702;28;20431;-68
2022/02/26 01:38:33;;;;;;;1.70;0.50;;;5.00;1.00;;;;;;5036505;28;20846;-68
2022/02/26 01:41:02;;;;;;;1.13;0.52;;;4.90;1.00;;;;;;5054519;28;20922;-69
2022/02/26 01:43:29;;;;;;;0.80;0.50;;;4.90;1.00;;;;;;5055775;28;20421;-69
2022/02/26 01:45:56;;;;;;;3.70;0.50;;;4.90;1.00;;;;;;5056524;28;20447;-69
2022/02/26 01:48:23;;;;;;;2.88;0.65;;;4.80;1.00;;;;;;5056835;28;20453;-69
2022/02/26 01:50:52;;;;;;;1.20;0.50;;;4.70;1.00;;;;;;5056395;28;20417;-69
2022/02/26 01:53:19;;;;;;;2.10;0.57;;;4.70;1.00;;;;;;5057320;28;20506;-69
2022/02/26 01:55:46;;;;;;;1.00;0.50;;;4.70;1.00;;;;;;5036895;28;20508;-69
2022/02/26 01:58:13;;;;;;;3.20;0.70;;;4.60;1.00;;;;;;5037091;28;20427;-69
2022/02/26 02:00:41;;;;;;;1.77;0.60;;;4.60;1.00;;;;;;5037378;28;20822;-69
2022/02/26 02:03:07;;;;;;;1.50;0.55;;;4.60;1.00;;;;;;5056896;28;20437;-69
2022/02/26 02:05:34;;;;;;;1.00;0.50;;;4.60;1.00;;;;;;5055737;28;20483;-69
2022/02/26 02:08:03;;;;;;;1.90;0.50;;;4.60;1.00;;;;;;5056835;28;20530;-69
2022/02/26 02:10:30;;;;;;;1.17;0.60;;;4.60;1.00;;;;;;5054844;28;20425;-69
2022/02/26 02:12:59;;;;;;;1.73;0.60;;;4.40;1.00;;;;;;5055030;28;20469;-69
2022/02/26 02:15:34;;;;;;;1.05;0.60;;;4.40;1.00;;;;;;5056898;28;20421;-69
2022/02/26 02:18:01;;;;;;;1.83;0.60;;;4.30;1.00;;;;;;5054505;28;20433;-69
2022/02/26 02:20:28;;;;;;;1.90;0.60;;;4.60;1.00;;;;;;5056017;28;20528;-69
2022/02/26 02:22:57;;;;;;;1.20;0.60;;;4.60;1.00;;;;;;5046518;28;20435;-69
2022/02/26 02:25:28;;;;;;;1.10;0.50;;;4.70;1.00;;;;;;5036462;28;20419;-70
2022/02/26 02:27:56;;;;;;;2.08;0.60;;;4.60;1.00;;;;;;5036333;28;20469;-69
2022/02/26 02:30:23;;;;;;;3.55;0.70;;;4.40;1.00;;;;;;5036227;28;20506;-70
2022/02/26 02:32:50;;;;;;;1.45;0.60;;;4.30;1.00;;;;;;5036267;28;20461;-69
2022/02/26 02:35:25;;;;;;;2.40;0.63;;;4.10;1.00;;;;;;5035871;28;20767;-70
2022/02/26 02:37:52;;;;;;;2.85;0.80;;;4.10;1.00;;;;;;5035765;28;20431;-69
2022/02/26 02:40:21;;;;;;;2.20;1.00;;;4.20;1.00;;;;;;5035614;28;20419;-70
2022/02/26 02:42:48;;;;;;;2.50;1.00;;;4.40;1.00;;;;;;5035054;28;20529;-69
2022/02/26 02:45:15;;;;;;;1.48;0.60;;;4.50;1.00;;;;;;5034975;28;20509;-69
2022/02/26 02:47:42;;;;;;;2.25;0.50;;;4.50;1.00;;;;;;5044530;28;20506;-69
2022/02/26 02:50:10;;;;;;;1.50;0.70;;;4.40;1.00;;;;;;5055360;28;20422;-69
2022/02/26 02:52:37;;;;;;;3.65;0.70;;;4.40;1.00;;;;;;5054941;28;20433;-67
2022/02/26 02:55:05;;;;;;;2.80;0.70;;;4.50;1.00;;;;;;5055303;28;20623;-69
2022/02/26 02:57:33;;;;;;;3.45;0.70;;;4.40;1.00;;;;;;5049255;28;20533;-67
2022/02/26 03:00:01;;;;;;;2.50;0.75;;;4.20;1.00;;;;;;5046317;28;20432;-68
2022/02/26 03:02:28;;;;;;;2.47;0.70;;;4.40;1.00;;;;;;5054084;28;20477;-68
2022/02/26 03:04:55;;;;;;;1.30;0.70;;;4.40;1.00;;;;;;5053959;28;20426;-69
2022/02/26 03:07:21;;;;;;;3.90;0.80;;;4.30;1.00;;;;;;5053376;28;20444;-69
2022/02/26 03:09:48;;;;;;;1.43;0.80;;;4.20;1.00;;;;;;5054056;28;20452;-69
2022/02/26 03:12:15;;;;;;;3.60;1.00;;;4.20;1.00;;;;;;5048029;28;20497;-69
2022/02/26 03:14:44;;;;;;;1.98;0.70;;;4.40;1.00;;;;;;5035099;28;20429;-69
2022/02/26 03:17:11;;;;;;;2.95;0.90;;;4.30;1.00;;;;;;5040263;28;20491;-69
2022/02/26 03:19:38;;;;;;;3.20;0.90;;;4.30;1.00;;;;;;5055302;28;20425;-69
2022/02/26 03:22:05;;;;;;;3.05;0.85;;;4.00;1.00;;;;;;5050269;28;20438;-69
2022/02/26 03:24:33;;;;;;;1.33;0.80;;;4.00;1.00;;;;;;5035544;28;20419;-69
2022/02/26 03:27:00;;;;;;;2.63;0.90;;;4.10;1.00;;;;;;5035186;28;20435;-69
2022/02/26 03:29:28;;;;;;;1.60;0.90;;;4.20;1.00;;;;;;5035339;28;20423;-69
2022/02/26 03:31:57;;;;;;;1.60;0.80;;;4.20;1.00;;;;;;5035505;28;20431;-69
2022/02/26 03:34:24;;;;;;;3.00;0.90;;;4.20;1.00;;;;;;5034924;28;20821;-69
2022/02/26 03:36:55;;;;;;;2.40;0.80;;;4.20;1.00;;;;;;5036911;28;22274;-69
2022/02/26 03:39:22;;;;;;;2.67;0.70;;;4.20;1.00;;;;;;5054532;28;20428;-69
2022/02/26 03:41:49;;;;;;;2.20;0.80;;;4.30;1.00;;;;;;5051771;28;20438;-68
2022/02/26 03:44:16;;;;;;;1.33;0.80;;;4.30;1.00;;;;;;5037876;28;20437;-69
2022/02/26 03:46:43;;;;;;;4.17;1.00;;;4.40;1.00;;;;;;5034914;28;20431;-69
2022/02/26 03:49:11;;;;;;;2.27;0.80;;;4.50;1.00;;;;;;5034574;28;20419;-70
2022/02/26 03:51:38;;;;;;;1.30;0.80;;;4.40;1.00;;;;;;5035144;28;20419;-69
2022/02/26 03:54:05;;;;;;;2.20;0.90;;;4.20;1.00;;;;;;5035280;28;20485;-69
2022/02/26 03:56:34;;;;;;;2.47;0.90;;;4.10;1.00;;;;;;5055093;28;20694;-69
2022/02/26 03:59:01;;;;;;;2.42;0.90;;;4.10;1.00;;;;;;5054006;28;20813;-69
2022/02/26 04:01:28;;;;;;;2.08;0.90;;;3.90;1.00;;;;;;5033810;28;20470;-69
2022/02/26 04:03:55;;;;;;;3.30;1.10;;;4.00;1.00;;;;;;5033771;28;20446;-69
2022/02/26 04:06:23;;;;;;;4.07;1.00;;;4.10;1.00;;;;;;5052810;28;20428;-68
2022/02/26 04:08:50;;;;;;;2.97;0.90;;;4.20;1.00;;;;;;5054032;28;20539;-69
2022/02/26 04:11:17;;;;;;;4.72;0.98;;;4.20;1.00;;;;;;5034816;28;20512;-69
2022/02/26 04:13:44;;;;;;;2.92;0.90;;;4.20;1.00;;;;;;5034633;28;20423;-68
2022/02/26 04:16:11;;;;;;;2.90;1.00;;;4.20;1.00;;;;;;5035029;28;20489;-69
2022/02/26 04:18:38;;;;;;;3.78;1.00;;;4.20;1.00;;;;;;5034824;28;20435;-69
2022/02/26 04:21:05;;;;;;;2.80;0.90;;;4.00;1.00;;;;;;5051004;28;20503;-68
2022/02/26 04:23:34;;;;;;;4.28;1.00;;;4.00;1.00;;;;;;5054986;28;20483;-69
2022/02/26 04:26:01;;;;;;;4.00;1.00;;;4.00;1.00;;;;;;5053691;28;20433;-69
2022/02/26 04:28:27;;;;;;;2.42;1.00;;;4.10;1.00;;;;;;5054834;28;20487;-69
2022/02/26 04:30:54;;;;;;;1.73;1.00;;;4.20;1.00;;;;;;5035099;28;20458;-69
2022/02/26 04:33:21;;;;;;;3.00;0.90;;;4.20;1.00;;;;;;5036347;28;20508;-68
2022/02/26 04:35:48;;;;;;;2.70;1.10;;;4.20;1.00;;;;;;5055746;28;20429;-69
2022/02/26 04:38:15;;;;;;;4.05;0.90;;;4.20;1.00;;;;;;5058377;28;20887;-69
2022/02/26 04:40:44;;;;;;;5.32;1.00;;;4.10;1.00;;;;;;5041563;28;20858;-69
2022/02/26 04:43:11;;;;;;;2.92;1.00;;;4.10;1.00;;;;;;5037667;28;20435;-68
2022/02/26 04:45:38;;;;;;;3.55;1.15;;;4.10;1.00;;;;;;5037557;28;20489;-69
2022/02/26 04:48:05;;;;;;;4.32;1.10;;;4.10;1.00;;;;;;5038061;28;20489;-69
2022/02/26 04:50:32;;;;;;;2.80;1.00;;;4.00;1.00;;;;;;5038698;28;20901;-69
2022/02/26 04:52:59;;;;;;;4.40;1.60;;;4.10;1.00;;;;;;5038105;28;20501;-69
2022/02/26 04:55:26;;;;;;;4.50;1.10;;;4.00;1.00;;;;;;5055247;28;20453;-68
2022/02/26 04:57:55;;;;;;;2.20;0.80;;;4.10;1.00;;;;;;5057770;28;20814;-69
2022/02/26 05:00:22;;;;;;;2.50;0.90;;;4.20;1.00;;;;;;5055318;28;20722;-69
2022/02/26 05:02:48;;;;;;;2.55;0.90;;;4.20;1.00;;;;;;5057588;28;20491;-69
2022/02/26 05:05:15;;;;;;;2.45;0.90;;;4.20;1.00;;;;;;5056566;28;20456;-61
2022/02/26 05:07:44;;;;;;;2.90;1.00;;;4.30;1.00;;;;;;5056500;28;20538;-61
2022/02/26 05:10:11;;;;;;;3.08;1.00;;;4.30;1.00;;;;;;5056823;28;20729;-61
2022/02/26 05:12:38;;;;;;;3.45;0.90;;;4.30;1.00;;;;;;5056428;28;20472;-61
2022/02/26 05:15:07;;;;;;;4.93;1.10;;;4.20;1.00;;;;;;5056737;28;20418;-61
2022/02/26 05:17:34;;;;;;;2.70;0.95;;;4.00;1.00;;;;;;5053143;28;20928;-61
2022/02/26 05:20:02;;;;;;;2.78;0.90;;;4.00;1.00;;;;;;5036569;28;20524;-61
2022/02/26 05:22:29;;;;;;;3.20;1.00;;;4.10;1.00;;;;;;5039305;28;20472;-61
2022/02/26 05:24:56;;;;;;;2.10;0.90;;;4.20;1.00;;;;;;5057392;28;20902;-61
2022/02/26 05:27:23;;;;;;;3.88;1.00;;;4.10;1.00;;;;;;5054855;28;20469;-61
2022/02/26 05:29:50;;;;;;;2.15;1.00;;;4.20;1.00;;;;;;5037326;28;20459;-61
2022/02/26 05:32:18;;;;;;;2.15;0.90;;;4.20;1.00;;;;;;5038376;28;20431;-61
2022/02/26 05:34:45;;;;;;;3.85;0.90;;;4.10;1.00;;;;;;5057103;28;20740;-61
2022/02/26 05:37:12;;;;;;;1.55;1.00;;;4.20;1.00;;;;;;5056043;28;20795;-61
2022/02/26 05:39:39;;;;;;;1.98;0.80;;;4.20;1.00;;;;;;5056996;28;20483;-61
2022/02/26 05:42:06;;;;;;;2.88;1.20;;;4.10;1.00;;;;;;5056361;28;20506;-61
2022/02/26 05:44:33;;;;;;;3.50;1.00;;;4.10;1.00;;;;;;5034498;28;20879;-61
2022/02/26 05:47:00;;;;;;;4.40;1.23;;;3.90;1.00;;;;;;5035439;28;20818;-61
2022/02/26 05:49:28;;;;;;;2.85;0.98;;;4.00;1.00;;;;;;5053900;28;20483;-61
2022/02/26 05:51:55;;;;;;;4.03;1.20;;;4.00;1.00;;;;;;5045605;28;20846;-61
2022/02/26 05:54:22;;;;;;;3.90;1.20;;;4.00;1.00;;;;;;5036081;28;20771;-61
2022/02/26 05:56:49;;;;;;;2.80;1.00;;;3.90;1.00;;;;;;5043595;28;20429;-61
2022/02/26 05:59:16;;;;;;;4.00;1.20;;;3.90;1.00;;;;;;5056333;28;20421;-61
2022/02/26 06:01:43;;;;;;;3.90;1.20;;;3.90;1.00;;;;;;5055307;28;20442;-61
2022/02/26 06:04:10;;;;;;;3.22;1.00;;;3.80;1.00;;;;;;5056340;28;20457;-61
2022/02/26 06:06:38;;;;;;;3.70;1.10;;;4.00;1.00;;;;;;5050394;28;20430;-61
2022/02/26 06:09:06;;;;;;;3.25;1.30;;;4.00;1.00;;;;;;5034993;28;20447;-61
2022/02/26 06:11:33;;;;;;;2.95;1.10;;;4.00;1.00;;;;;;5042747;28;20425;-61
2022/02/26 06:13:59;;;;;;;4.00;1.10;;;4.10;1.00;;;;;;5055205;28;20983;-61
2022/02/26 06:16:26;;;;;;;5.28;1.40;;;4.10;1.00;;;;;;5054003;28;20920;-61
2022/02/26 06:18:53;;;;;;;2.58;1.10;;;4.20;1.00;;;;;;5056021;28;20428;-61
2022/02/26 06:21:20;;;;;;;6.15;1.20;;;4.20;1.00;;;;;;5055507;28;20526;-59
2022/02/26 06:23:49;;;;;;;4.03;1.10;;;4.30;1.00;;;;;;5055922;28;20449;-59
2022/02/26 06:26:16;;;;;;;2.75;1.00;;;4.30;1.00;;;;;;5053237;28;20429;-59
2022/02/26 06:28:42;;;;;;;4.10;1.10;;;4.80;5.60;;;;;;5055134;28;20441;-59
2022/02/26 06:31:09;;;;;;;3.70;1.10;;;5.30;1.00;;;;;;5055533;28;20486;-59
2022/02/26 06:33:36;;;;;;;5.57;1.30;;;5.40;1.00;;;;;;5054634;28;20429;-59
2022/02/26 06:36:04;;;;;;;3.47;1.20;;;5.10;1.00;;;;;;5048373;28;20512;-61
2022/02/26 06:38:32;;;;;;;2.58;1.10;;;5.20;1.00;;;;;;5036190;28;20731;-61
2022/02/26 06:41:00;;;;;;;1.98;0.98;;;4.90;1.00;;;;;;5035534;28;20427;-60
2022/02/26 06:43:27;;;;;;;3.00;1.00;;;4.90;1.00;;;;;;5035667;28;20478;-60
2022/02/26 06:45:54;;;;;;;3.58;1.20;;;5.00;1.00;;;;;;5036383;28;20805;-61
2022/02/26 06:48:21;;;;;;;3.15;1.20;;;4.90;1.00;;;;;;5036364;28;20433;-61
2022/02/26 06:50:48;;;;;;;3.17;1.10;;;4.70;1.00;;;;;;5045732;28;20430;-61
2022/02/26 06:53:15;;;;;;;1.80;1.10;;;4.60;1.00;;;;;;5035755;28;20489;-61
2022/02/26 06:55:43;;;;;;;2.60;1.10;;;4.70;1.00;;;;;;5040297;28;20509;-60
2022/02/26 06:58:11;;;;;;;3.85;1.10;;;4.80;1.00;;;;;;5049037;28;20449;-59
2022/02/26 07:00:38;;;;;;;2.13;1.00;;;5.10;1.00;;;;;;5043587;28;20441;-60
2022/02/26 07:03:05;;;;;;;3.20;1.00;;;5.30;1.00;;;;;;5050778;28;20743;-60
2022/02/26 07:05:32;;;;;;;3.20;1.10;;;5.50;1.00;;;;;;5053440;28;20425;-60
2022/02/26 07:07:59;;;;;;;3.60;1.13;;;5.70;99.90;;;;;;5054224;28;20712;-60
2022/02/26 07:10:26;;;;;;;2.60;1.00;;;5.70;99.90;;;;;;5050980;28;20438;-58
2022/02/26 07:12:53;;;;;;;3.70;1.05;;;5.90;99.90;;;;;;5048286;28;20765;-58
2022/02/26 07:15:22;;;;;;;2.70;1.00;;;5.60;99.90;;;;;;5057711;28;20433;-59
2022/02/26 07:17:48;;;;;;;4.87;1.23;;;5.50;99.90;;;;;;5043198;28;20437;-59
2022/02/26 07:20:16;;;;;;;2.20;1.20;;;5.40;99.90;;;;;;5050302;28;20546;-59
2022/02/26 07:22:43;;;;;;;3.75;1.40;;;5.40;99.90;;;;;;5052024;28;20477;-59
2022/02/26 07:25:10;;;;;;;4.38;1.20;;;5.00;99.90;;;;;;5051951;28;20421;-60
2022/02/26 07:27:37;;;;;;;3.60;1.10;;;4.90;1.00;;;;;;5052323;28;20624;-60
2022/02/26 07:30:07;;;;;;;2.95;1.10;;;5.00;1.00;;;;;;5051779;28;20433;-60
2022/02/26 07:32:36;;;;;;;2.60;1.20;;;4.90;1.00;;;;;;5044360;28;20735;-60
2022/02/26 07:35:04;;;;;;;3.67;1.13;;;5.00;1.00;;;;;;5051192;28;20439;-60
2022/02/26 07:37:31;;;;;;;5.65;1.20;;;5.20;1.00;;;;;;5051905;28;20816;-60
2022/02/26 07:39:58;;;;;;;2.10;1.10;;;5.30;99.90;;;;;;5045056;28;20512;-60
2022/02/26 07:42:26;;;;;;;5.80;1.40;;;5.30;99.90;;;;;;5048487;28;20718;-60
2022/02/26 07:44:53;;;;;;;5.05;1.20;;;5.30;99.90;;;;;;5036837;28;20760;-60
2022/02/26 07:47:20;;;;;;;1.98;1.02;;;5.20;99.90;;;;;;5031381;28;20423;-59
2022/02/26 07:49:49;;;;;;;3.25;1.20;;;5.20;99.90;;;;;;5028018;28;20542;-59
2022/02/26 07:52:19;;;;;;;3.10;1.17;;;5.00;99.90;;;;;;5032730;28;20426;-59
2022/02/26 07:54:46;;;;;;;3.75;1.20;;;4.80;1.00;;;;;;5046089;28;20435;-59
2022/02/26 07:57:13;;;;;;;2.30;1.20;;;4.70;1.00;;;;;;5032496;28;20863;-59
2022/02/26 07:59:40;;;;;;;3.50;1.20;;;4.70;1.00;;;;;;5049175;28;20933;-59
2022/02/26 08:02:08;;;;;;;5.95;1.60;;;4.60;1.00;;;;;;5040830;28;20435;-59
2022/02/26 08:04:37;;;;;;;3.00;1.10;;;4.70;1.00;;;;;;5014052;28;20919;-59
2022/02/26 08:07:06;;;;;;;5.50;1.60;;;4.90;1.00;;;;;;5014238;28;20425;-59
2022/02/26 08:09:33;;;;;;;2.50;1.30;;;5.10;1.00;;;;;;5017699;28;20857;-59
2022/02/26 08:12:00;;;;;;;4.35;1.50;;;5.20;99.90;;;;;;5030466;28;20958;-59
2022/02/26 08:14:27;;;;;;;2.55;1.30;;;5.20;1.00;;;;;;5029932;28;20582;-58
2022/02/26 08:16:54;;;;;;;2.97;1.20;;;5.30;99.90;;;;;;5026186;28;20439;-59
2022/02/26 08:19:21;;;;;;;5.93;1.80;;;5.80;99.90;;;;;;5022932;28;20558;-58
2022/02/26 08:21:48;;;;;;;3.10;1.13;;;6.00;99.90;;;;;;5042552;28;20494;-59
2022/02/26 08:24:17;;;;;;;4.70;1.30;;;5.70;1.00;;;;;;5033553;28;20439;-59
2022/02/26 08:26:45;;;;;;;3.30;1.40;;;5.80;99.90;;;;;;5020557;28;20485;-60
2022/02/26 08:29:12;;;;;;;5.13;1.50;;;6.00;1.00;;;;;;5020480;28;20436;-59
2022/02/26 08:31:39;;;;;;;3.63;1.60;;;6.10;1.00;;;;;;5013527;28;20509;-59
2022/02/26 08:34:06;;;;;;;3.92;1.30;;;6.20;1.00;;;;;;5032351;28;20865;-59
2022/02/26 08:36:33;;;;;;;3.08;1.10;;;6.40;1.00;;;;;;5023761;28;20983;-59
2022/02/26 08:39:00;;;;;;;4.80;1.40;;;6.50;1.00;;;;;;5018458;28;20449;-59
2022/02/26 08:41:30;;;;;;;3.70;1.40;;;6.70;1.00;;;;;;5016774;28;20662;-59
2022/02/26 08:43:56;;;;;;;2.17;1.13;;;6.90;99.90;;;;;;5037039;28;20506;-59
2022/02/26 08:46:24;;;;;;;3.58;1.20;;;7.10;99.90;;;;;;5049258;28;20431;-58
2022/02/26 08:48:56;;;;;;;2.70;1.40;;;6.60;1.00;;;;;;5040377;28;20439;-59
2022/02/26 08:51:23;;;;;;;2.50;1.13;;;6.40;99.90;;;;;;5054412;28;20426;-57
2022/02/26 08:53:52;;;;;;;3.00;1.20;;;6.50;99.90;;;;;;5042148;28;20488;-58
2022/02/26 08:56:19;;;;;;;3.17;1.20;;;6.70;1.00;;;;;;5044837;28;20437;-58
2022/02/26 08:58:47;;;;;;;3.70;1.27;;;7.00;99.90;;;;;;5048484;28;20869;-59
2022/02/26 09:01:20;;;;;;;2.15;1.20;;;7.10;1.00;;;;;;5046805;28;20461;-57
2022/02/26 09:03:47;;;;;;;4.10;1.27;;;7.00;1.00;;;;;;5053187;28;20534;-59
2022/02/26 09:06:14;;;;;;;3.07;1.10;;;6.40;1.00;;;;;;5045879;28;20437;-58
2022/02/26 09:08:41;;;;;;;2.20;1.13;;;6.40;99.90;;;;;;5037892;28;20427;-60
2022/02/26 09:11:09;;;;;;;4.30;0.93;;;6.50;99.90;;;;;;5048847;28;20429;-58
2022/02/26 09:13:42;;;;;;;2.42;1.00;;;6.60;1.00;;;;;;5042359;28;20477;-58
2022/02/26 09:16:10;;;;;;;4.30;1.20;;;6.10;1.00;;;;;;5049172;28;20787;-59
2022/02/26 09:18:38;;;;;;;3.92;1.60;;;5.90;1.00;;;;;;5039496;28;20423;-61
2022/02/26 09:21:06;;;;;;;3.47;1.30;;;5.90;99.90;;;;;;5033920;28;20439;-60
2022/02/26 09:23:33;;;;;;;2.88;1.63;;;6.00;1.00;;;;;;5040117;28;20884;-60
2022/02/26 09:26:04;;;;;;;3.90;1.17;;;6.20;1.00;;;;;;5039326;28;20434;-59
2022/02/26 09:28:32;;;;;;;2.80;0.90;;;6.50;1.00;;;;;;5041875;28;20522;-59
2022/02/26 09:30:59;;;;;;;2.28;1.00;;;6.70;99.90;;;;;;5047537;28;20437;-58
2022/02/26 09:33:29;;;;;;;2.67;0.90;;;6.60;99.90;;;;;;5051342;28;20521;-59
2022/02/26 09:35:56;;;;;;;2.33;1.00;;;6.60;99.90;;;;;;5047128;28;20748;-59
2022/02/26 09:38:23;;;;;;;2.40;0.88;;;6.60;99.90;;;;;;5037848;28;20825;-59
2022/02/26 09:40:50;;;;;;;2.40;1.20;;;6.40;99.90;;;;;;5045670;28;20525;-59
2022/02/26 09:43:17;;;;;;;2.05;0.90;;;6.40;99.90;;;;;;5038099;28;20496;-59
2022/02/26 09:45:44;;;;;;;2.60;0.90;;;6.30;99.90;;;;;;5017694;28;20516;-59
2022/02/26 09:48:12;;;;;;;1.90;0.90;;;6.20;92.30;;;;;;5020308;28;20582;-59
2022/02/26 09:50:41;;;;;;;1.30;0.70;;;6.10;46.60;;;;;;5020390;28;20427;-59
2022/02/26 09:53:09;;;;;;;3.10;1.90;;;6.30;99.90;;;;;;5031413;28;20878;-60
2022/02/26 09:55:37;;;;;;;4.13;1.55;;;6.60;58.30;;;;;;5009942;28;20422;-60
2022/02/26 09:58:04;;;;;;;3.08;0.80;;;7.00;1.00;;;;;;5022934;28;20436;-60
2022/02/26 10:00:32;;;;;;;2.60;0.90;;;7.00;1.00;;;;;;5020790;28;20433;-60
2022/02/26 10:02:59;;;;;;;2.25;0.80;;;6.90;1.00;;;;;;5018229;28;20480;-60
2022/02/26 10:05:26;;;;;;;2.58;0.90;;;7.00;1.00;;;;;;5025131;28;20910;-60
2022/02/26 10:07:54;;;;;;;2.70;0.90;;;6.70;1.00;;;;;;5017298;28;20957;-61
2022/02/26 10:10:23;;;;;;;2.00;0.80;;;6.90;1.00;;;;;;5017673;28;20419;-61
2022/02/26 10:12:52;;;;;;;2.95;0.50;;;7.40;1.00;;;;;;5031483;28;20506;-60
2022/02/26 10:15:25;;;;;;;1.30;0.40;;;7.60;1.00;;;;;;5018428;28;20419;-60
2022/02/26 10:18:05;;;;;;;0.85;0.30;;;7.80;1.00;;;;;;5034830;28;20532;-59
2022/02/26 10:20:33;;;;;;;1.43;0.30;;;7.70;1.00;;;;;;5021678;28;20921;-60
2022/02/26 10:23:01;;;;;;;0.70;0.30;;;7.90;1.00;;;;;;5020114;28;20837;-59
2022/02/26 10:25:30;;;;;;;1.90;0.40;;;8.20;1.00;;;;;;5022251;28;20501;-60
2022/02/26 10:27:59;;;;;;;1.40;0.30;;;7.70;1.00;;;;;;5020426;28;20509;-60
2022/02/26 10:30:28;;;;;;;1.30;0.40;;;7.70;1.00;;;;;;5031501;28;20528;-60
2022/02/26 10:33:12;;;;;;;0.73;0.30;;;7.40;1.00;;;;;;5029661;28;20433;-60
2022/02/26 10:35:45;;;;;;;1.30;0.50;;;7.80;1.00;;;;;;5023251;28;20441;-61
2022/02/26 10:38:20;;;;;;;0.90;0.30;;;7.90;1.00;;;;;;5011815;28;20775;-59
2022/02/26 10:40:53;;;;;;;0.80;0.30;;;8.10;1.00;;;;;;5021247;28;20953;-59
2022/02/26 10:43:42;;;;;;;0.90;0.40;;;8.20;1.00;;;;;;5026360;28;21138;-62
2022/02/26 10:46:22;;;;;;;1.27;0.60;;;8.40;1.00;;;;;;5043659;28;20437;-62
2022/02/26 10:48:52;;;;;;;0.98;0.40;;;8.00;1.00;;;;;;5047896;28;20437;-61
2022/02/26 10:51:21;;;;;;;1.30;0.40;;;8.00;1.00;;;;;;5044177;28;20632;-61
2022/02/26 10:53:50;;;;;;;1.50;0.40;;;8.00;1.00;;;;;;5037425;28;20709;-62
2022/02/26 10:56:19;;;;;;;1.30;0.50;;;8.40;1.00;;;;;;5045681;28;20425;-59
2022/02/26 10:58:46;;;;;;;1.80;0.40;;;9.10;1.00;;;;;;5041383;28;20447;-59
2022/02/26 11:01:15;;;;;;;1.70;0.40;;;9.20;1.00;;;;;;5045852;28;20499;-60
2022/02/26 11:03:43;;;;;;;1.10;0.50;;;9.40;1.00;;;;;;5042444;28;20533;-62
2022/02/26 11:06:12;;;;;;;1.05;0.50;;;9.40;1.00;;;;;;5040653;28;20968;-61
2022/02/26 11:08:40;;;;;;;1.83;0.50;;;9.40;1.00;;;;;;5030600;28;20437;-62
2022/02/26 11:11:09;;;;;;;2.40;0.60;;;9.40;1.00;;;;;;5042871;28;20485;-62
2022/02/26 11:13:37;;;;;;;2.63;0.50;;;8.90;1.00;;;;;;5045845;28;20465;-62
2022/02/26 11:16:06;;;;;;;1.75;0.50;;;8.80;1.00;;;;;;5048906;28;20433;-62
2022/02/26 11:18:39;;;;;;;1.90;0.60;;;8.20;1.00;;;;;;5044395;28;20851;-63
2022/02/26 11:21:08;;;;;;;1.80;0.50;;;8.20;1.00;;;;;;5047094;28;20421;-63
2022/02/26 11:23:38;;;;;;;1.30;0.50;;;8.70;1.00;;;;;;5036659;28;20926;-62
2022/02/26 11:26:07;;;;;;;2.65;0.50;;;9.10;1.00;;;;;;5038885;28;20421;-63
2022/02/26 11:28:37;;;;;;;4.20;0.55;;;9.70;1.00;;;;;;5029607;28;20864;-63
2022/02/26 11:31:08;;;;;;;1.25;0.60;;;10.00;1.00;;;;;;5032620;28;20512;-64
2022/02/26 11:33:36;;;;;;;0.80;0.50;;;10.40;1.00;;;;;;5043070;28;20522;-64
2022/02/26 11:36:06;;;;;;;1.40;0.47;;;10.40;1.00;;;;;;5041034;28;20456;-64
2022/02/26 11:38:36;;;;;;;1.98;0.60;;;10.50;1.00;;;;;;5043405;28;20431;-62
2022/02/26 11:41:23;;;;;;;2.57;0.50;;;10.70;1.00;;;;;;5045009;28;20495;-63
2022/02/26 11:43:53;;;;;;;4.80;1.17;;;11.00;1.00;;;;;;5041125;28;20448;-65
2022/02/26 11:46:26;;;;;;;1.20;0.43;;;10.70;1.00;;;;;;5047037;28;20431;-63
2022/02/26 11:48:54;;;;;;;1.45;0.40;;;10.60;1.00;;;;;;5044741;28;20858;-63
2022/02/26 11:51:31;;;;;;;0.98;0.40;;;10.40;1.00;;;;;;5047887;28;20425;-64
2022/02/26 11:53:58;;;;;;;3.03;0.50;;;10.20;1.00;;;;;;5048919;28;20546;-64
2022/02/26 11:56:39;;;;;;;1.65;0.40;;;10.40;1.00;;;;;;5051578;28;20425;-62
2022/02/26 11:59:07;;;;;;;1.80;0.40;;;10.40;1.00;;;;;;5048031;28;20849;-63
2022/02/26 12:01:34;;;;;;;0.80;0.50;;;10.70;1.00;;;;;;5044872;28;20448;-63
2022/02/26 12:04:01;;;;;;;1.92;0.50;;;11.00;1.00;;;;;;5049108;28;20447;-62
2022/02/26 12:06:35;;;;;;;1.30;0.40;;;11.00;1.00;;;;;;5047207;28;20433;-62
2022/02/26 12:09:09;;;;;;;2.30;0.40;;;10.40;1.00;;;;;;5052751;28;20810;-65
2022/02/26 12:11:39;;;;;;;1.50;0.50;;;10.30;1.00;;;;;;5051238;28;20432;-65
2022/02/26 12:14:09;;;;;;;1.10;0.50;;;10.40;1.00;;;;;;5037657;28;20429;-62
2022/02/26 12:16:37;;;;;;;3.22;0.50;;;10.50;1.00;;;;;;5048883;28;20954;-63
2022/02/26 12:19:07;;;;;;;1.50;0.50;;;10.60;1.00;;;;;;5044642;28;20465;-63
2022/02/26 12:21:36;;;;;;;1.70;0.50;;;10.40;1.00;;;;;;5056061;28;21053;-63
2022/02/26 12:24:05;;;;;;;1.40;0.50;;;10.00;1.00;;;;;;5052075;28;20966;-60
2022/02/26 12:26:43;;;;;;;1.77;0.60;;;9.60;1.00;;;;;;5059365;28;20420;-61
2022/02/26 12:29:23;;;;;;;3.45;0.40;;;9.90;1.00;;;;;;5056946;28;20777;-62
2022/02/26 12:31:55;;;;;;;1.25;0.47;;;10.00;1.00;;;;;;5049889;28;20441;-61
2022/02/26 12:34:23;;;;;;;2.20;0.50;;;10.30;1.00;;;;;;5054615;28;20491;-61
2022/02/26 12:37:08;;;;;;;1.30;0.40;;;10.70;1.00;;;;;;5049524;28;20426;-62
2022/02/26 12:39:39;;;;;;;1.00;0.40;;;10.90;1.00;;;;;;5053721;28;20912;-62
2022/02/26 12:42:06;;;;;;;0.88;0.40;;;11.20;1.00;;;;;;5047268;28;20453;-62
2022/02/26 12:44:38;;;;;;;1.10;0.40;;;10.80;1.00;;;;;;5052347;28;20472;-61
2022/02/26 12:47:07;;;;;;;1.33;0.50;;;10.90;1.00;;;;;;5040366;28;20427;-61
2022/02/26 12:49:34;;;;;;;1.27;0.40;;;10.70;1.00;;;;;;5041862;28;21046;-61
2022/02/26 12:52:04;;;;;;;0.90;0.40;;;10.30;1.00;;;;;;5052144;28;20511;-60
2022/02/26 12:54:32;;;;;;;1.60;0.40;;;9.80;1.00;;;;;;5034594;28;20493;-61
2022/02/26 12:57:01;;;;;;;1.40;0.40;;;9.00;1.00;;;;;;5032960;28;20455;-61
2022/02/26 12:59:30;;;;;;;2.22;0.70;;;8.70;1.00;;;;;;5051407;28;20433;-63
2022/02/26 13:02:00;;;;;;;1.38;0.40;;;8.90;1.00;;;;;;5047733;28;20429;-63
2022/02/26 13:04:30;;;;;;;0.98;0.40;;;8.70;1.00;;;;;;5033946;28;20624;-63
2022/02/26 13:06:59;;;;;;;3.08;0.70;;;8.70;1.00;;;;;;5038482;28;20433;-62
2022/02/26 13:09:28;;;;;;;1.40;0.40;;;8.40;1.00;;;;;;5055802;28;20441;-62
2022/02/26 13:11:57;;;;;;;2.40;0.40;;;8.40;1.00;;;;;;5055898;28;20491;-63
2022/02/26 13:14:25;;;;;;;1.80;0.50;;;8.50;1.00;;;;;;5057212;28;20425;-63